sensor_id;sensor_type;location;lat;lon;timestamp;P1;durP1;ratioP1;P2;durP2;ratioP2
66559;SDS011;53413;49.878;8.142;2022-07-22T00:00:59;14.43;;;7.65;;
66559;SDS011;53413;49.878;8.142;2022-07-22T00:03:25;12.27;;;7.70;;
66559;SDS011;53413;49.878;8.142;2022-07-22T00:05:50;13.77;;;7.57;;
66559;SDS011;53413;49.878;8.142;2022-07-22T00:08:15;14.63;;;8.10;;
66559;SDS011;53413;49.878;8.142;2022-07-22T00:10:41;13.45;;;8.10;;
66559;SDS011;53413;49.878;8.142;2022-07-22T00:13:07;11.82;;;7.20;;
66559;SDS011;53413;49.878;8.142;2022-07-22T00:15:32;14.93;;;6.93;;
66559;SDS011;53413;49.878;8.142;2022-07-22T00:17:58;12.73;;;7.53;;
66559;SDS011;53413;49.878;8.142;2022-07-22T00:20:23;14.13;;;7.80;;
66559;SDS011;53413;49.878;8.142;2022-07-22T00:22:48;14.03;;;7.90;;
66559;SDS011;53413;49.878;8.142;2022-07-22T00:25:14;13.83;;;7.30;;
66559;SDS011;53413;49.878;8.142;2022-07-22T00:27:39;13.07;;;7.53;;
66559;SDS011;53413;49.878;8.142;2022-07-22T00:30:05;13.50;;;7.90;;
66559;SDS011;53413;49.878;8.142;2022-07-22T00:32:31;14.90;;;7.90;;
66559;SDS011;53413;49.878;8.142;2022-07-22T00:34:56;13.97;;;7.53;;
66559;SDS011;53413;49.878;8.142;2022-07-22T00:37:22;14.57;;;7.43;;
66559;SDS011;53413;49.878;8.142;2022-07-22T00:39:47;14.57;;;7.53;;
66559;SDS011;53413;49.878;8.142;2022-07-22T00:42:13;14.98;;;7.78;;
66559;SDS011;53413;49.878;8.142;2022-07-22T00:44:39;14.90;;;8.07;;
66559;SDS011;53413;49.878;8.142;2022-07-22T00:47:04;12.98;;;7.05;;
66559;SDS011;53413;49.878;8.142;2022-07-22T00:49:30;12.87;;;7.13;;
66559;SDS011;53413;49.878;8.142;2022-07-22T00:51:55;14.50;;;7.93;;
66559;SDS011;53413;49.878;8.142;2022-07-22T00:54:20;13.50;;;8.00;;
66559;SDS011;53413;49.878;8.142;2022-07-22T00:56:46;14.90;;;8.15;;
66559;SDS011;53413;49.878;8.142;2022-07-22T00:59:12;15.98;;;8.40;;
66559;SDS011;53413;49.878;8.142;2022-07-22T01:01:38;14.25;;;8.35;;
66559;SDS011;53413;49.878;8.142;2022-07-22T01:04:04;14.30;;;8.02;;
66559;SDS011;53413;49.878;8.142;2022-07-22T01:06:30;14.90;;;8.50;;
66559;SDS011;53413;49.878;8.142;2022-07-22T01:08:56;14.02;;;7.85;;
66559;SDS011;53413;49.878;8.142;2022-07-22T01:11:22;15.60;;;8.47;;
66559;SDS011;53413;49.878;8.142;2022-07-22T01:13:47;14.57;;;8.23;;
66559;SDS011;53413;49.878;8.142;2022-07-22T01:16:14;13.73;;;7.80;;
66559;SDS011;53413;49.878;8.142;2022-07-22T01:18:40;13.95;;;7.97;;
66559;SDS011;53413;49.878;8.142;2022-07-22T01:21:07;15.55;;;8.73;;
66559;SDS011;53413;49.878;8.142;2022-07-22T01:23:33;14.93;;;8.50;;
66559;SDS011;53413;49.878;8.142;2022-07-22T01:26:00;15.70;;;8.63;;
66559;SDS011;53413;49.878;8.142;2022-07-22T01:28:26;15.15;;;8.77;;
66559;SDS011;53413;49.878;8.142;2022-07-22T01:30:51;16.02;;;8.65;;
66559;SDS011;53413;49.878;8.142;2022-07-22T01:33:18;13.57;;;7.50;;
66559;SDS011;53413;49.878;8.142;2022-07-22T01:35:44;15.30;;;7.88;;
66559;SDS011;53413;49.878;8.142;2022-07-22T01:38:10;18.77;;;9.03;;
66559;SDS011;53413;49.878;8.142;2022-07-22T01:40:36;16.08;;;7.88;;
66559;SDS011;53413;49.878;8.142;2022-07-22T01:43:01;16.03;;;8.03;;
66559;SDS011;53413;49.878;8.142;2022-07-22T01:45:27;15.35;;;8.88;;
66559;SDS011;53413;49.878;8.142;2022-07-22T01:47:52;15.85;;;8.55;;
66559;SDS011;53413;49.878;8.142;2022-07-22T01:50:18;17.23;;;8.57;;
66559;SDS011;53413;49.878;8.142;2022-07-22T01:52:43;16.83;;;8.37;;
66559;SDS011;53413;49.878;8.142;2022-07-22T01:55:08;18.27;;;8.67;;
66559;SDS011;53413;49.878;8.142;2022-07-22T01:57:37;17.38;;;8.98;;
66559;SDS011;53413;49.878;8.142;2022-07-22T02:00:06;16.92;;;8.85;;
66559;SDS011;53413;49.878;8.142;2022-07-22T02:02:33;18.55;;;9.30;;
66559;SDS011;53413;49.878;8.142;2022-07-22T02:04:59;17.58;;;9.13;;
66559;SDS011;53413;49.878;8.142;2022-07-22T02:07:25;18.30;;;9.37;;
66559;SDS011;53413;49.878;8.142;2022-07-22T02:09:51;16.75;;;8.82;;
66559;SDS011;53413;49.878;8.142;2022-07-22T02:12:17;16.17;;;7.93;;
66559;SDS011;53413;49.878;8.142;2022-07-22T02:14:43;16.53;;;8.53;;
66559;SDS011;53413;49.878;8.142;2022-07-22T02:17:09;17.83;;;9.32;;
66559;SDS011;53413;49.878;8.142;2022-07-22T02:19:34;19.87;;;9.57;;
66559;SDS011;53413;49.878;8.142;2022-07-22T02:22:00;18.33;;;9.25;;
66559;SDS011;53413;49.878;8.142;2022-07-22T02:24:25;16.07;;;8.20;;
66559;SDS011;53413;49.878;8.142;2022-07-22T02:26:50;19.53;;;9.47;;
66559;SDS011;53413;49.878;8.142;2022-07-22T02:29:16;15.70;;;8.33;;
66559;SDS011;53413;49.878;8.142;2022-07-22T02:31:41;15.47;;;8.00;;
66559;SDS011;53413;49.878;8.142;2022-07-22T02:34:07;16.90;;;8.40;;
66559;SDS011;53413;49.878;8.142;2022-07-22T02:36:33;18.57;;;8.90;;
66559;SDS011;53413;49.878;8.142;2022-07-22T02:38:58;19.60;;;9.82;;
66559;SDS011;53413;49.878;8.142;2022-07-22T02:41:24;17.40;;;9.00;;
66559;SDS011;53413;49.878;8.142;2022-07-22T02:43:49;19.73;;;10.03;;
66559;SDS011;53413;49.878;8.142;2022-07-22T02:46:18;17.30;;;9.02;;
66559;SDS011;53413;49.878;8.142;2022-07-22T02:48:44;16.55;;;9.10;;
66559;SDS011;53413;49.878;8.142;2022-07-22T02:51:09;18.15;;;9.57;;
66559;SDS011;53413;49.878;8.142;2022-07-22T02:53:35;20.77;;;9.30;;
66559;SDS011;53413;49.878;8.142;2022-07-22T02:56:00;17.77;;;9.50;;
66559;SDS011;53413;49.878;8.142;2022-07-22T02:58:26;18.00;;;9.60;;
66559;SDS011;53413;49.878;8.142;2022-07-22T03:00:51;17.77;;;8.83;;
66559;SDS011;53413;49.878;8.142;2022-07-22T03:03:16;19.10;;;9.30;;
66559;SDS011;53413;49.878;8.142;2022-07-22T03:05:42;18.85;;;9.38;;
66559;SDS011;53413;49.878;8.142;2022-07-22T03:08:07;17.37;;;9.70;;
66559;SDS011;53413;49.878;8.142;2022-07-22T03:10:33;18.50;;;8.73;;
66559;SDS011;53413;49.878;8.142;2022-07-22T03:12:58;17.17;;;8.83;;
66559;SDS011;53413;49.878;8.142;2022-07-22T03:15:23;16.50;;;8.30;;
66559;SDS011;53413;49.878;8.142;2022-07-22T03:17:49;19.80;;;10.45;;
66559;SDS011;53413;49.878;8.142;2022-07-22T03:20:14;16.83;;;8.18;;
66559;SDS011;53413;49.878;8.142;2022-07-22T03:22:40;15.40;;;7.87;;
66559;SDS011;53413;49.878;8.142;2022-07-22T03:25:05;20.48;;;9.52;;
66559;SDS011;53413;49.878;8.142;2022-07-22T03:27:31;17.70;;;9.37;;
66559;SDS011;53413;49.878;8.142;2022-07-22T03:29:56;17.67;;;9.37;;
66559;SDS011;53413;49.878;8.142;2022-07-22T03:32:22;19.03;;;8.93;;
66559;SDS011;53413;49.878;8.142;2022-07-22T03:34:47;18.40;;;9.67;;
66559;SDS011;53413;49.878;8.142;2022-07-22T03:37:12;20.58;;;9.80;;
66559;SDS011;53413;49.878;8.142;2022-07-22T03:39:38;16.42;;;8.15;;
66559;SDS011;53413;49.878;8.142;2022-07-22T03:42:03;16.30;;;8.87;;
66559;SDS011;53413;49.878;8.142;2022-07-22T03:44:29;15.47;;;8.43;;
66559;SDS011;53413;49.878;8.142;2022-07-22T03:46:54;16.27;;;8.70;;
66559;SDS011;53413;49.878;8.142;2022-07-22T03:49:19;16.75;;;9.25;;
66559;SDS011;53413;49.878;8.142;2022-07-22T03:51:45;16.83;;;8.77;;
66559;SDS011;53413;49.878;8.142;2022-07-22T03:54:11;16.03;;;8.77;;
66559;SDS011;53413;49.878;8.142;2022-07-22T03:56:36;16.07;;;9.33;;
66559;SDS011;53413;49.878;8.142;2022-07-22T03:59:02;20.73;;;10.35;;
66559;SDS011;53413;49.878;8.142;2022-07-22T04:01:27;20.38;;;9.88;;
66559;SDS011;53413;49.878;8.142;2022-07-22T04:03:53;21.95;;;10.68;;
66559;SDS011;53413;49.878;8.142;2022-07-22T04:06:18;17.60;;;9.13;;
66559;SDS011;53413;49.878;8.142;2022-07-22T04:08:44;19.90;;;9.83;;
66559;SDS011;53413;49.878;8.142;2022-07-22T04:11:09;22.07;;;10.80;;
66559;SDS011;53413;49.878;8.142;2022-07-22T04:13:35;20.25;;;10.45;;
66559;SDS011;53413;49.878;8.142;2022-07-22T04:16:00;20.50;;;9.90;;
66559;SDS011;53413;49.878;8.142;2022-07-22T04:18:26;17.63;;;8.30;;
66559;SDS011;53413;49.878;8.142;2022-07-22T04:20:51;20.80;;;9.40;;
66559;SDS011;53413;49.878;8.142;2022-07-22T04:23:16;17.92;;;9.82;;
66559;SDS011;53413;49.878;8.142;2022-07-22T04:25:42;18.47;;;9.23;;
66559;SDS011;53413;49.878;8.142;2022-07-22T04:28:09;19.42;;;9.70;;
66559;SDS011;53413;49.878;8.142;2022-07-22T04:30:34;16.63;;;8.47;;
66559;SDS011;53413;49.878;8.142;2022-07-22T04:33:00;17.73;;;8.70;;
66559;SDS011;53413;49.878;8.142;2022-07-22T04:35:25;18.38;;;9.02;;
66559;SDS011;53413;49.878;8.142;2022-07-22T04:37:50;17.90;;;9.05;;
66559;SDS011;53413;49.878;8.142;2022-07-22T04:40:16;17.13;;;8.87;;
66559;SDS011;53413;49.878;8.142;2022-07-22T04:42:41;15.97;;;8.40;;
66559;SDS011;53413;49.878;8.142;2022-07-22T04:45:07;20.23;;;9.73;;
66559;SDS011;53413;49.878;8.142;2022-07-22T04:47:33;15.57;;;8.43;;
66559;SDS011;53413;49.878;8.142;2022-07-22T04:49:59;15.73;;;8.32;;
66559;SDS011;53413;49.878;8.142;2022-07-22T04:52:24;14.83;;;7.93;;
66559;SDS011;53413;49.878;8.142;2022-07-22T04:54:49;17.13;;;8.70;;
66559;SDS011;53413;49.878;8.142;2022-07-22T04:57:15;16.53;;;8.63;;
66559;SDS011;53413;49.878;8.142;2022-07-22T04:59:40;17.15;;;9.05;;
66559;SDS011;53413;49.878;8.142;2022-07-22T05:02:06;16.40;;;8.40;;
66559;SDS011;53413;49.878;8.142;2022-07-22T05:04:32;15.88;;;8.75;;
66559;SDS011;53413;49.878;8.142;2022-07-22T05:06:57;17.53;;;9.57;;
66559;SDS011;53413;49.878;8.142;2022-07-22T05:09:23;16.03;;;9.07;;
66559;SDS011;53413;49.878;8.142;2022-07-22T05:11:48;16.30;;;8.57;;
66559;SDS011;53413;49.878;8.142;2022-07-22T05:14:13;16.30;;;8.00;;
66559;SDS011;53413;49.878;8.142;2022-07-22T05:16:39;15.07;;;7.90;;
66559;SDS011;53413;49.878;8.142;2022-07-22T05:19:04;14.45;;;7.80;;
66559;SDS011;53413;49.878;8.142;2022-07-22T05:21:30;13.27;;;7.60;;
66559;SDS011;53413;49.878;8.142;2022-07-22T05:23:56;13.20;;;7.60;;
66559;SDS011;53413;49.878;8.142;2022-07-22T05:26:22;14.00;;;7.57;;
66559;SDS011;53413;49.878;8.142;2022-07-22T05:28:48;15.77;;;7.60;;
66559;SDS011;53413;49.878;8.142;2022-07-22T05:31:13;15.57;;;7.63;;
66559;SDS011;53413;49.878;8.142;2022-07-22T05:33:38;14.02;;;7.18;;
66559;SDS011;53413;49.878;8.142;2022-07-22T05:36:04;14.27;;;7.23;;
66559;SDS011;53413;49.878;8.142;2022-07-22T05:38:33;13.75;;;7.20;;
66559;SDS011;53413;49.878;8.142;2022-07-22T05:40:59;12.85;;;7.30;;
66559;SDS011;53413;49.878;8.142;2022-07-22T05:43:24;11.32;;;7.03;;
66559;SDS011;53413;49.878;8.142;2022-07-22T05:45:49;11.30;;;6.93;;
66559;SDS011;53413;49.878;8.142;2022-07-22T05:48:15;13.17;;;7.00;;
66559;SDS011;53413;49.878;8.142;2022-07-22T05:50:40;13.37;;;7.30;;
66559;SDS011;53413;49.878;8.142;2022-07-22T05:53:06;13.75;;;7.40;;
66559;SDS011;53413;49.878;8.142;2022-07-22T05:55:31;13.00;;;7.20;;
66559;SDS011;53413;49.878;8.142;2022-07-22T05:58:00;11.05;;;6.70;;
66559;SDS011;53413;49.878;8.142;2022-07-22T06:00:25;11.18;;;6.35;;
66559;SDS011;53413;49.878;8.142;2022-07-22T06:02:50;9.33;;;5.90;;
66559;SDS011;53413;49.878;8.142;2022-07-22T06:05:16;9.77;;;5.90;;
66559;SDS011;53413;49.878;8.142;2022-07-22T06:07:41;9.73;;;6.00;;
66559;SDS011;53413;49.878;8.142;2022-07-22T06:10:07;9.10;;;6.40;;
66559;SDS011;53413;49.878;8.142;2022-07-22T06:12:32;9.57;;;6.23;;
66559;SDS011;53413;49.878;8.142;2022-07-22T06:14:58;8.77;;;6.10;;
66559;SDS011;53413;49.878;8.142;2022-07-22T06:17:23;9.07;;;5.75;;
66559;SDS011;53413;49.878;8.142;2022-07-22T06:19:49;9.33;;;6.23;;
66559;SDS011;53413;49.878;8.142;2022-07-22T06:22:14;9.17;;;6.60;;
66559;SDS011;53413;49.878;8.142;2022-07-22T06:24:42;8.45;;;5.63;;
66559;SDS011;53413;49.878;8.142;2022-07-22T06:27:07;8.50;;;5.97;;
66559;SDS011;53413;49.878;8.142;2022-07-22T06:29:33;8.03;;;6.17;;
66559;SDS011;53413;49.878;8.142;2022-07-22T06:31:58;9.88;;;6.57;;
66559;SDS011;53413;49.878;8.142;2022-07-22T06:34:24;8.43;;;5.70;;
66559;SDS011;53413;49.878;8.142;2022-07-22T06:36:49;8.47;;;5.90;;
66559;SDS011;53413;49.878;8.142;2022-07-22T06:39:14;9.00;;;6.37;;
66559;SDS011;53413;49.878;8.142;2022-07-22T06:41:40;8.83;;;5.93;;
66559;SDS011;53413;49.878;8.142;2022-07-22T06:44:05;9.43;;;6.30;;
66559;SDS011;53413;49.878;8.142;2022-07-22T06:46:31;8.45;;;6.10;;
66559;SDS011;53413;49.878;8.142;2022-07-22T06:48:56;8.53;;;6.43;;
66559;SDS011;53413;49.878;8.142;2022-07-22T06:51:21;8.27;;;6.70;;
66559;SDS011;53413;49.878;8.142;2022-07-22T06:53:47;8.57;;;6.43;;
66559;SDS011;53413;49.878;8.142;2022-07-22T06:56:13;8.77;;;6.00;;
66559;SDS011;53413;49.878;8.142;2022-07-22T06:58:38;9.07;;;5.80;;
66559;SDS011;53413;49.878;8.142;2022-07-22T07:01:03;8.47;;;6.30;;
66559;SDS011;53413;49.878;8.142;2022-07-22T07:03:29;8.47;;;6.07;;
66559;SDS011;53413;49.878;8.142;2022-07-22T07:05:54;7.72;;;5.88;;
66559;SDS011;53413;49.878;8.142;2022-07-22T07:08:20;8.83;;;6.40;;
66559;SDS011;53413;49.878;8.142;2022-07-22T07:10:45;8.27;;;5.93;;
66559;SDS011;53413;49.878;8.142;2022-07-22T07:13:11;9.90;;;6.20;;
66559;SDS011;53413;49.878;8.142;2022-07-22T07:15:36;8.77;;;6.43;;
66559;SDS011;53413;49.878;8.142;2022-07-22T07:18:01;7.77;;;6.37;;
66559;SDS011;53413;49.878;8.142;2022-07-22T07:20:27;8.60;;;6.50;;
66559;SDS011;53413;49.878;8.142;2022-07-22T07:22:53;8.80;;;6.43;;
66559;SDS011;53413;49.878;8.142;2022-07-22T07:25:19;8.88;;;6.25;;
66559;SDS011;53413;49.878;8.142;2022-07-22T07:27:44;8.47;;;6.60;;
66559;SDS011;53413;49.878;8.142;2022-07-22T07:30:10;8.43;;;6.67;;
66559;SDS011;53413;49.878;8.142;2022-07-22T07:32:36;8.60;;;6.78;;
66559;SDS011;53413;49.878;8.142;2022-07-22T07:35:03;8.65;;;6.50;;
66559;SDS011;53413;49.878;8.142;2022-07-22T07:37:29;8.25;;;6.25;;
66559;SDS011;53413;49.878;8.142;2022-07-22T07:39:54;7.97;;;6.40;;
66559;SDS011;53413;49.878;8.142;2022-07-22T07:42:20;8.93;;;7.10;;
66559;SDS011;53413;49.878;8.142;2022-07-22T07:44:45;8.97;;;7.47;;
66559;SDS011;53413;49.878;8.142;2022-07-22T07:47:10;9.43;;;7.20;;
66559;SDS011;53413;49.878;8.142;2022-07-22T07:49:38;9.75;;;6.88;;
66559;SDS011;53413;49.878;8.142;2022-07-22T07:52:03;8.67;;;7.00;;
66559;SDS011;53413;49.878;8.142;2022-07-22T07:54:29;8.40;;;6.63;;
66559;SDS011;53413;49.878;8.142;2022-07-22T07:56:54;8.77;;;7.63;;
66559;SDS011;53413;49.878;8.142;2022-07-22T07:59:19;9.40;;;7.13;;
66559;SDS011;53413;49.878;8.142;2022-07-22T08:01:45;8.77;;;6.40;;
66559;SDS011;53413;49.878;8.142;2022-07-22T08:04:10;8.27;;;6.63;;
66559;SDS011;53413;49.878;8.142;2022-07-22T08:06:36;9.35;;;7.72;;
66559;SDS011;53413;49.878;8.142;2022-07-22T08:09:01;10.03;;;7.13;;
66559;SDS011;53413;49.878;8.142;2022-07-22T08:11:26;10.03;;;7.57;;
66559;SDS011;53413;49.878;8.142;2022-07-22T08:13:52;9.70;;;7.73;;
66559;SDS011;53413;49.878;8.142;2022-07-22T08:16:17;8.97;;;7.90;;
66559;SDS011;53413;49.878;8.142;2022-07-22T08:18:43;9.48;;;8.05;;
66559;SDS011;53413;49.878;8.142;2022-07-22T08:21:08;9.20;;;7.80;;
66559;SDS011;53413;49.878;8.142;2022-07-22T08:23:34;8.50;;;6.93;;
66559;SDS011;53413;49.878;8.142;2022-07-22T08:25:59;8.63;;;7.73;;
66559;SDS011;53413;49.878;8.142;2022-07-22T08:28:24;8.93;;;7.70;;
66559;SDS011;53413;49.878;8.142;2022-07-22T08:30:50;9.20;;;7.50;;
66559;SDS011;53413;49.878;8.142;2022-07-22T08:33:17;8.65;;;7.35;;
66559;SDS011;53413;49.878;8.142;2022-07-22T08:35:42;8.83;;;7.70;;
66559;SDS011;53413;49.878;8.142;2022-07-22T08:38:08;9.57;;;7.90;;
66559;SDS011;53413;49.878;8.142;2022-07-22T08:40:33;8.80;;;7.65;;
66559;SDS011;53413;49.878;8.142;2022-07-22T08:42:59;8.23;;;7.20;;
66559;SDS011;53413;49.878;8.142;2022-07-22T08:45:28;8.70;;;7.53;;
66559;SDS011;53413;49.878;8.142;2022-07-22T08:47:54;8.70;;;7.78;;
66559;SDS011;53413;49.878;8.142;2022-07-22T08:50:20;8.57;;;7.20;;
66559;SDS011;53413;49.878;8.142;2022-07-22T08:52:45;7.97;;;6.90;;
66559;SDS011;53413;49.878;8.142;2022-07-22T08:55:11;10.40;;;7.78;;
66559;SDS011;53413;49.878;8.142;2022-07-22T08:57:36;8.20;;;7.17;;
66559;SDS011;53413;49.878;8.142;2022-07-22T09:00:08;9.50;;;6.78;;
66559;SDS011;53413;49.878;8.142;2022-07-22T09:02:36;7.47;;;6.68;;
66559;SDS011;53413;49.878;8.142;2022-07-22T09:05:04;7.83;;;7.00;;
66559;SDS011;53413;49.878;8.142;2022-07-22T09:07:41;7.95;;;7.15;;
66559;SDS011;53413;49.878;8.142;2022-07-22T09:10:08;8.45;;;7.03;;
66559;SDS011;53413;49.878;8.142;2022-07-22T09:15:27;7.90;;;6.75;;
66559;SDS011;53413;49.878;8.142;2022-07-22T09:17:58;7.50;;;6.70;;
66559;SDS011;53413;49.878;8.142;2022-07-22T09:20:24;7.38;;;6.68;;
66559;SDS011;53413;49.878;8.142;2022-07-22T09:22:52;7.78;;;6.63;;
66559;SDS011;53413;49.878;8.142;2022-07-22T09:27:56;8.38;;;7.32;;
66559;SDS011;53413;49.878;8.142;2022-07-22T09:30:40;8.53;;;6.20;;
66559;SDS011;53413;49.878;8.142;2022-07-22T09:33:10;8.13;;;7.32;;
66559;SDS011;53413;49.878;8.142;2022-07-22T09:35:36;7.43;;;6.60;;
66559;SDS011;53413;49.878;8.142;2022-07-22T09:38:07;7.70;;;6.93;;
66559;SDS011;53413;49.878;8.142;2022-07-22T09:40:38;8.02;;;7.20;;
66559;SDS011;53413;49.878;8.142;2022-07-22T09:43:06;7.10;;;6.40;;
66559;SDS011;53413;49.878;8.142;2022-07-22T09:45:44;8.02;;;6.43;;
66559;SDS011;53413;49.878;8.142;2022-07-22T09:48:16;7.97;;;6.70;;
66559;SDS011;53413;49.878;8.142;2022-07-22T09:50:44;9.20;;;7.03;;
66559;SDS011;53413;49.878;8.142;2022-07-22T09:53:11;7.22;;;6.28;;
66559;SDS011;53413;49.878;8.142;2022-07-22T09:55:37;7.47;;;6.57;;
66559;SDS011;53413;49.878;8.142;2022-07-22T09:58:04;7.22;;;6.47;;
66559;SDS011;53413;49.878;8.142;2022-07-22T10:00:32;9.27;;;7.55;;
66559;SDS011;53413;49.878;8.142;2022-07-22T10:02:59;8.30;;;7.38;;
66559;SDS011;53413;49.878;8.142;2022-07-22T10:05:33;8.35;;;7.35;;
66559;SDS011;53413;49.878;8.142;2022-07-22T10:08:01;8.00;;;6.17;;
66559;SDS011;53413;49.878;8.142;2022-07-22T10:10:29;8.18;;;6.88;;
66559;SDS011;53413;49.878;8.142;2022-07-22T10:12:57;8.35;;;6.93;;
66559;SDS011;53413;49.878;8.142;2022-07-22T10:15:25;9.75;;;7.03;;
66559;SDS011;53413;49.878;8.142;2022-07-22T10:17:52;8.18;;;6.70;;
66559;SDS011;53413;49.878;8.142;2022-07-22T10:20:20;8.17;;;6.50;;
66559;SDS011;53413;49.878;8.142;2022-07-22T10:25:17;8.50;;;6.25;;
66559;SDS011;53413;49.878;8.142;2022-07-22T10:30:20;8.43;;;6.38;;
66559;SDS011;53413;49.878;8.142;2022-07-22T10:33:01;8.50;;;6.80;;
66559;SDS011;53413;49.878;8.142;2022-07-22T10:35:27;9.95;;;6.65;;
66559;SDS011;53413;49.878;8.142;2022-07-22T10:37:54;8.75;;;6.60;;
66559;SDS011;53413;49.878;8.142;2022-07-22T10:46:05;8.60;;;5.85;;
66559;SDS011;53413;49.878;8.142;2022-07-22T10:48:16;7.78;;;5.70;;
66559;SDS011;53413;49.878;8.142;2022-07-22T10:50:45;8.00;;;5.82;;
66559;SDS011;53413;49.878;8.142;2022-07-22T11:01:14;8.23;;;5.40;;
66559;SDS011;53413;49.878;8.142;2022-07-22T11:03:41;8.32;;;5.20;;
66559;SDS011;53413;49.878;8.142;2022-07-22T11:06:15;8.98;;;5.25;;
66559;SDS011;53413;49.878;8.142;2022-07-22T11:08:44;7.77;;;5.47;;
66559;SDS011;53413;49.878;8.142;2022-07-22T11:11:12;8.35;;;5.47;;
66559;SDS011;53413;49.878;8.142;2022-07-22T11:13:39;7.57;;;5.00;;
66559;SDS011;53413;49.878;8.142;2022-07-22T11:21:25;9.50;;;5.50;;
66559;SDS011;53413;49.878;8.142;2022-07-22T11:23:54;8.77;;;5.32;;
66559;SDS011;53413;49.878;8.142;2022-07-22T11:26:25;7.47;;;5.20;;
66559;SDS011;53413;49.878;8.142;2022-07-22T11:28:58;8.23;;;5.55;;
66559;SDS011;53413;49.878;8.142;2022-07-22T11:31:25;9.77;;;4.97;;
66559;SDS011;53413;49.878;8.142;2022-07-22T11:33:50;8.07;;;5.07;;
66559;SDS011;53413;49.878;8.142;2022-07-22T11:36:16;8.37;;;4.87;;
66559;SDS011;53413;49.878;8.142;2022-07-22T11:41:08;9.15;;;5.40;;
66559;SDS011;53413;49.878;8.142;2022-07-22T11:43:37;8.93;;;5.37;;
66559;SDS011;53413;49.878;8.142;2022-07-22T11:46:11;7.40;;;5.53;;
66559;SDS011;53413;49.878;8.142;2022-07-22T11:48:37;7.65;;;5.00;;
66559;SDS011;53413;49.878;8.142;2022-07-22T11:51:03;8.63;;;5.83;;
66559;SDS011;53413;49.878;8.142;2022-07-22T11:53:30;8.00;;;5.45;;
66559;SDS011;53413;49.878;8.142;2022-07-22T11:55:59;8.02;;;5.78;;
66559;SDS011;53413;49.878;8.142;2022-07-22T11:58:47;8.65;;;5.65;;
66559;SDS011;53413;49.878;8.142;2022-07-22T12:01:27;9.63;;;6.10;;
66559;SDS011;53413;49.878;8.142;2022-07-22T12:03:54;10.05;;;6.05;;
66559;SDS011;53413;49.878;8.142;2022-07-22T12:06:31;8.60;;;6.07;;
66559;SDS011;53413;49.878;8.142;2022-07-22T12:09:23;8.60;;;6.10;;
66559;SDS011;53413;49.878;8.142;2022-07-22T12:11:52;10.05;;;6.30;;
66559;SDS011;53413;49.878;8.142;2022-07-22T12:14:24;9.40;;;6.07;;
66559;SDS011;53413;49.878;8.142;2022-07-22T12:19:21;10.32;;;6.13;;
66559;SDS011;53413;49.878;8.142;2022-07-22T12:21:54;10.13;;;6.37;;
66559;SDS011;53413;49.878;8.142;2022-07-22T12:32:02;10.63;;;6.38;;
66559;SDS011;53413;49.878;8.142;2022-07-22T12:34:30;9.10;;;5.87;;
66559;SDS011;53413;49.878;8.142;2022-07-22T12:36:55;9.43;;;6.13;;
66559;SDS011;53413;49.878;8.142;2022-07-22T12:39:22;8.35;;;5.97;;
66559;SDS011;53413;49.878;8.142;2022-07-22T12:41:49;9.37;;;5.60;;
66559;SDS011;53413;49.878;8.142;2022-07-22T12:46:46;8.30;;;5.57;;
66559;SDS011;53413;49.878;8.142;2022-07-22T12:49:14;8.50;;;6.00;;
66559;SDS011;53413;49.878;8.142;2022-07-22T12:51:41;9.13;;;6.03;;
66559;SDS011;53413;49.878;8.142;2022-07-22T12:54:06;8.43;;;5.93;;
66559;SDS011;53413;49.878;8.142;2022-07-22T12:56:32;8.77;;;5.80;;
66559;SDS011;53413;49.878;8.142;2022-07-22T12:58:58;8.75;;;5.90;;
66559;SDS011;53413;49.878;8.142;2022-07-22T13:01:24;9.07;;;5.70;;
66559;SDS011;53413;49.878;8.142;2022-07-22T13:03:49;9.80;;;6.00;;
66559;SDS011;53413;49.878;8.142;2022-07-22T13:06:14;7.77;;;5.80;;
66559;SDS011;53413;49.878;8.142;2022-07-22T13:08:40;8.80;;;6.03;;
66559;SDS011;53413;49.878;8.142;2022-07-22T13:11:06;9.37;;;6.33;;
66559;SDS011;53413;49.878;8.142;2022-07-22T13:13:31;8.93;;;5.93;;
66559;SDS011;53413;49.878;8.142;2022-07-22T13:15:56;10.05;;;5.85;;
66559;SDS011;53413;49.878;8.142;2022-07-22T13:18:22;9.80;;;6.10;;
66559;SDS011;53413;49.878;8.142;2022-07-22T13:20:47;9.67;;;6.00;;
66559;SDS011;53413;49.878;8.142;2022-07-22T13:23:13;7.83;;;6.17;;
66559;SDS011;53413;49.878;8.142;2022-07-22T13:25:38;8.45;;;6.20;;
66559;SDS011;53413;49.878;8.142;2022-07-22T13:28:04;8.20;;;5.70;;
66559;SDS011;53413;49.878;8.142;2022-07-22T13:30:29;8.00;;;5.73;;
66559;SDS011;53413;49.878;8.142;2022-07-22T13:32:55;8.88;;;5.90;;
66559;SDS011;53413;49.878;8.142;2022-07-22T13:35:21;9.80;;;6.10;;
66559;SDS011;53413;49.878;8.142;2022-07-22T13:37:47;8.53;;;5.83;;
66559;SDS011;53413;49.878;8.142;2022-07-22T13:40:12;8.17;;;5.90;;
66559;SDS011;53413;49.878;8.142;2022-07-22T13:42:38;9.63;;;6.10;;
66559;SDS011;53413;49.878;8.142;2022-07-22T13:45:04;8.00;;;5.50;;
66559;SDS011;53413;49.878;8.142;2022-07-22T13:47:30;8.82;;;6.10;;
66559;SDS011;53413;49.878;8.142;2022-07-22T13:49:56;9.77;;;6.10;;
66559;SDS011;53413;49.878;8.142;2022-07-22T13:52:21;9.83;;;5.83;;
66559;SDS011;53413;49.878;8.142;2022-07-22T13:54:47;9.80;;;6.13;;
66559;SDS011;53413;49.878;8.142;2022-07-22T13:57:14;9.57;;;6.00;;
66559;SDS011;53413;49.878;8.142;2022-07-22T13:59:40;8.77;;;6.03;;
66559;SDS011;53413;49.878;8.142;2022-07-22T14:02:05;10.40;;;5.87;;
66559;SDS011;53413;49.878;8.142;2022-07-22T14:04:31;8.83;;;5.97;;
66559;SDS011;53413;49.878;8.142;2022-07-22T14:06:56;8.97;;;5.50;;
66559;SDS011;53413;49.878;8.142;2022-07-22T14:09:22;11.07;;;6.20;;
66559;SDS011;53413;49.878;8.142;2022-07-22T14:11:47;8.13;;;5.53;;
66559;SDS011;53413;49.878;8.142;2022-07-22T14:14:13;9.40;;;5.90;;
66559;SDS011;53413;49.878;8.142;2022-07-22T14:16:39;9.27;;;6.15;;
66559;SDS011;53413;49.878;8.142;2022-07-22T14:21:38;9.33;;;5.73;;
66559;SDS011;53413;49.878;8.142;2022-07-22T14:24:06;8.60;;;5.60;;
66559;SDS011;53413;49.878;8.142;2022-07-22T14:26:33;10.23;;;6.10;;
66559;SDS011;53413;49.878;8.142;2022-07-22T14:28:59;7.47;;;5.65;;
66559;SDS011;53413;49.878;8.142;2022-07-22T14:31:25;9.13;;;5.57;;
66559;SDS011;53413;49.878;8.142;2022-07-22T14:33:51;8.85;;;6.00;;
66559;SDS011;53413;49.878;8.142;2022-07-22T14:36:16;8.60;;;6.00;;
66559;SDS011;53413;49.878;8.142;2022-07-22T14:38:42;11.18;;;5.93;;
66559;SDS011;53413;49.878;8.142;2022-07-22T14:41:08;8.90;;;6.00;;
66559;SDS011;53413;49.878;8.142;2022-07-22T14:43:34;9.43;;;5.63;;
66559;SDS011;53413;49.878;8.142;2022-07-22T14:46:00;8.02;;;5.68;;
66559;SDS011;53413;49.878;8.142;2022-07-22T14:48:26;8.90;;;5.72;;
66559;SDS011;53413;49.878;8.142;2022-07-22T14:50:52;8.45;;;5.78;;
66559;SDS011;53413;49.878;8.142;2022-07-22T14:53:18;9.50;;;6.10;;
66559;SDS011;53413;49.878;8.142;2022-07-22T14:55:43;9.27;;;5.70;;
66559;SDS011;53413;49.878;8.142;2022-07-22T14:58:08;9.03;;;5.63;;
66559;SDS011;53413;49.878;8.142;2022-07-22T15:00:34;8.00;;;5.97;;
66559;SDS011;53413;49.878;8.142;2022-07-22T15:02:59;8.13;;;5.65;;
66559;SDS011;53413;49.878;8.142;2022-07-22T15:05:25;9.40;;;5.70;;
66559;SDS011;53413;49.878;8.142;2022-07-22T15:07:50;8.03;;;5.73;;
66559;SDS011;53413;49.878;8.142;2022-07-22T15:10:15;9.63;;;5.97;;
66559;SDS011;53413;49.878;8.142;2022-07-22T15:12:41;9.30;;;6.03;;
66559;SDS011;53413;49.878;8.142;2022-07-22T15:15:06;9.13;;;5.73;;
66559;SDS011;53413;49.878;8.142;2022-07-22T15:17:33;8.95;;;5.88;;
66559;SDS011;53413;49.878;8.142;2022-07-22T15:20:00;8.57;;;5.70;;
66559;SDS011;53413;49.878;8.142;2022-07-22T15:22:25;8.48;;;5.72;;